sensor_id;sensor_type;location;lat;lon;timestamp;P1;durP1;ratioP1;P2;durP2;ratioP2
11761;SDS011;5938;47.098;15.474;2023-09-12T00:00:48;31.03;;;28.30;;
11761;SDS011;5938;47.098;15.474;2023-09-12T00:04:52;31.87;;;28.77;;
11761;SDS011;5938;47.098;15.474;2023-09-12T00:08:56;34.13;;;30.73;;
11761;SDS011;5938;47.098;15.474;2023-09-12T00:12:59;31.20;;;28.43;;
11761;SDS011;5938;47.098;15.474;2023-09-12T00:17:05;35.63;;;32.47;;
11761;SDS011;5938;47.098;15.474;2023-09-12T00:21:08;36.43;;;33.13;;
11761;SDS011;5938;47.098;15.474;2023-09-12T00:25:12;34.17;;;31.27;;
11761;SDS011;5938;47.098;15.474;2023-09-12T00:29:15;34.50;;;31.43;;
11761;SDS011;5938;47.098;15.474;2023-09-12T00:33:20;36.17;;;32.77;;
11761;SDS011;5938;47.098;15.474;2023-09-12T00:37:24;34.87;;;31.57;;
11761;SDS011;5938;47.098;15.474;2023-09-12T00:41:27;33.20;;;30.40;;
11761;SDS011;5938;47.098;15.474;2023-09-12T00:45:30;34.90;;;31.80;;
11761;SDS011;5938;47.098;15.474;2023-09-12T00:49:35;34.33;;;31.10;;
11761;SDS011;5938;47.098;15.474;2023-09-12T00:53:40;35.27;;;32.20;;
11761;SDS011;5938;47.098;15.474;2023-09-12T00:57:43;37.03;;;33.70;;
11761;SDS011;5938;47.098;15.474;2023-09-12T01:01:47;35.60;;;32.40;;
11761;SDS011;5938;47.098;15.474;2023-09-12T01:05:52;36.43;;;33.03;;
11761;SDS011;5938;47.098;15.474;2023-09-12T01:09:56;36.07;;;32.77;;
11761;SDS011;5938;47.098;15.474;2023-09-12T01:13:59;36.80;;;33.50;;
11761;SDS011;5938;47.098;15.474;2023-09-12T01:18:03;36.73;;;33.40;;
11761;SDS011;5938;47.098;15.474;2023-09-12T01:26:41;38.03;;;34.63;;
11761;SDS011;5938;47.098;15.474;2023-09-12T01:30:55;38.33;;;34.83;;
11761;SDS011;5938;47.098;15.474;2023-09-12T01:34:59;36.50;;;33.30;;
11761;SDS011;5938;47.098;15.474;2023-09-12T01:39:11;41.40;;;37.60;;
11761;SDS011;5938;47.098;15.474;2023-09-12T01:43:15;37.47;;;33.77;;
11761;SDS011;5938;47.098;15.474;2023-09-12T01:47:21;39.43;;;36.00;;
11761;SDS011;5938;47.098;15.474;2023-09-12T01:51:27;36.83;;;33.73;;
11761;SDS011;5938;47.098;15.474;2023-09-12T01:55:31;37.67;;;34.37;;
11761;SDS011;5938;47.098;15.474;2023-09-12T01:59:36;38.80;;;35.10;;
11761;SDS011;5938;47.098;15.474;2023-09-12T02:03:41;37.83;;;34.63;;
11761;SDS011;5938;47.098;15.474;2023-09-12T02:07:45;37.33;;;34.03;;
11761;SDS011;5938;47.098;15.474;2023-09-12T02:11:50;37.63;;;34.33;;
11761;SDS011;5938;47.098;15.474;2023-09-12T02:15:58;41.93;;;38.20;;
11761;SDS011;5938;47.098;15.474;2023-09-12T02:20:04;40.70;;;37.13;;
11761;SDS011;5938;47.098;15.474;2023-09-12T02:24:08;39.20;;;35.30;;
11761;SDS011;5938;47.098;15.474;2023-09-12T02:28:13;38.20;;;34.53;;
11761;SDS011;5938;47.098;15.474;2023-09-12T02:32:16;38.77;;;35.40;;
11761;SDS011;5938;47.098;15.474;2023-09-12T02:36:21;38.57;;;34.97;;
11761;SDS011;5938;47.098;15.474;2023-09-12T02:40:24;39.03;;;35.50;;
11761;SDS011;5938;47.098;15.474;2023-09-12T02:44:28;37.73;;;34.30;;
11761;SDS011;5938;47.098;15.474;2023-09-12T02:48:31;40.10;;;36.53;;
11761;SDS011;5938;47.098;15.474;2023-09-12T02:52:36;38.23;;;34.63;;
11761;SDS011;5938;47.098;15.474;2023-09-12T02:56:39;39.00;;;35.40;;
11761;SDS011;5938;47.098;15.474;2023-09-12T03:00:43;37.33;;;34.07;;
11761;SDS011;5938;47.098;15.474;2023-09-12T03:04:47;38.40;;;34.87;;
11761;SDS011;5938;47.098;15.474;2023-09-12T03:08:52;38.37;;;34.90;;
11761;SDS011;5938;47.098;15.474;2023-09-12T03:12:55;37.60;;;34.40;;
11761;SDS011;5938;47.098;15.474;2023-09-12T03:16:58;38.17;;;34.80;;
11761;SDS011;5938;47.098;15.474;2023-09-12T03:21:02;39.23;;;35.50;;
11761;SDS011;5938;47.098;15.474;2023-09-12T03:25:14;36.93;;;33.73;;
11761;SDS011;5938;47.098;15.474;2023-09-12T03:29:17;40.93;;;36.83;;
11761;SDS011;5938;47.098;15.474;2023-09-12T03:33:20;37.63;;;34.37;;
11761;SDS011;5938;47.098;15.474;2023-09-12T03:37:25;37.70;;;34.30;;
11761;SDS011;5938;47.098;15.474;2023-09-12T03:41:31;36.53;;;33.40;;
11761;SDS011;5938;47.098;15.474;2023-09-12T03:45:35;38.23;;;34.93;;
11761;SDS011;5938;47.098;15.474;2023-09-12T03:49:39;38.53;;;34.93;;
11761;SDS011;5938;47.098;15.474;2023-09-12T03:53:42;37.93;;;34.20;;
11761;SDS011;5938;47.098;15.474;2023-09-12T03:57:47;37.53;;;34.20;;
11761;SDS011;5938;47.098;15.474;2023-09-12T04:01:50;38.27;;;34.67;;
11761;SDS011;5938;47.098;15.474;2023-09-12T04:05:54;38.50;;;34.90;;
11761;SDS011;5938;47.098;15.474;2023-09-12T04:09:57;37.13;;;33.70;;
11761;SDS011;5938;47.098;15.474;2023-09-12T04:14:02;36.87;;;33.37;;
11761;SDS011;5938;47.098;15.474;2023-09-12T04:18:06;37.80;;;34.47;;
11761;SDS011;5938;47.098;15.474;2023-09-12T04:22:10;40.83;;;37.03;;
11761;SDS011;5938;47.098;15.474;2023-09-12T04:26:13;38.63;;;35.00;;
11761;SDS011;5938;47.098;15.474;2023-09-12T04:30:18;39.53;;;35.97;;
11761;SDS011;5938;47.098;15.474;2023-09-12T04:34:22;37.93;;;34.43;;
11761;SDS011;5938;47.098;15.474;2023-09-12T04:38:26;39.97;;;36.33;;
11761;SDS011;5938;47.098;15.474;2023-09-12T04:42:30;38.80;;;35.20;;
11761;SDS011;5938;47.098;15.474;2023-09-12T04:46:34;36.80;;;33.50;;
11761;SDS011;5938;47.098;15.474;2023-09-12T04:50:40;36.33;;;33.07;;
11761;SDS011;5938;47.098;15.474;2023-09-12T04:54:44;37.93;;;34.07;;
11761;SDS011;5938;47.098;15.474;2023-09-12T04:58:48;38.87;;;34.67;;
11761;SDS011;5938;47.098;15.474;2023-09-12T05:02:53;38.37;;;34.57;;
11761;SDS011;5938;47.098;15.474;2023-09-12T05:06:56;38.70;;;35.10;;
11761;SDS011;5938;47.098;15.474;2023-09-12T05:11:02;37.90;;;34.30;;
11761;SDS011;5938;47.098;15.474;2023-09-12T05:15:35;40.30;;;36.40;;
11761;SDS011;5938;47.098;15.474;2023-09-12T05:19:50;40.07;;;35.83;;
11761;SDS011;5938;47.098;15.474;2023-09-12T05:24:10;40.10;;;36.40;;
11761;SDS011;5938;47.098;15.474;2023-09-12T05:28:33;42.53;;;38.37;;
11761;SDS011;5938;47.098;15.474;2023-09-12T05:32:36;40.10;;;36.30;;
11761;SDS011;5938;47.098;15.474;2023-09-12T05:36:41;40.63;;;36.23;;
11761;SDS011;5938;47.098;15.474;2023-09-12T05:40:47;39.90;;;35.90;;
11761;SDS011;5938;47.098;15.474;2023-09-12T05:44:51;39.57;;;35.83;;
11761;SDS011;5938;47.098;15.474;2023-09-12T05:48:56;39.17;;;35.33;;
11761;SDS011;5938;47.098;15.474;2023-09-12T05:53:02;38.50;;;34.93;;
11761;SDS011;5938;47.098;15.474;2023-09-12T05:57:07;38.63;;;35.00;;
11761;SDS011;5938;47.098;15.474;2023-09-12T06:01:13;39.70;;;35.80;;
11761;SDS011;5938;47.098;15.474;2023-09-12T06:05:17;40.90;;;36.70;;
11761;SDS011;5938;47.098;15.474;2023-09-12T06:09:22;40.23;;;36.10;;
11761;SDS011;5938;47.098;15.474;2023-09-12T06:13:26;43.20;;;38.93;;
11761;SDS011;5938;47.098;15.474;2023-09-12T06:17:29;41.50;;;37.10;;
11761;SDS011;5938;47.098;15.474;2023-09-12T06:21:38;41.40;;;36.47;;
11761;SDS011;5938;47.098;15.474;2023-09-12T06:25:43;41.40;;;37.10;;
11761;SDS011;5938;47.098;15.474;2023-09-12T06:29:46;40.43;;;36.80;;
11761;SDS011;5938;47.098;15.474;2023-09-12T06:33:51;40.60;;;37.10;;
11761;SDS011;5938;47.098;15.474;2023-09-12T06:37:54;40.07;;;36.37;;
11761;SDS011;5938;47.098;15.474;2023-09-12T06:41:59;41.80;;;37.80;;
11761;SDS011;5938;47.098;15.474;2023-09-12T06:46:03;40.63;;;36.57;;
11761;SDS011;5938;47.098;15.474;2023-09-12T06:50:07;40.97;;;37.07;;
11761;SDS011;5938;47.098;15.474;2023-09-12T06:54:16;42.10;;;37.50;;
11761;SDS011;5938;47.098;15.474;2023-09-12T06:58:20;39.07;;;35.00;;
11761;SDS011;5938;47.098;15.474;2023-09-12T07:02:24;39.93;;;35.93;;
11761;SDS011;5938;47.098;15.474;2023-09-12T07:06:29;43.20;;;38.90;;
11761;SDS011;5938;47.098;15.474;2023-09-12T07:10:34;38.87;;;34.97;;
11761;SDS011;5938;47.098;15.474;2023-09-12T07:14:39;40.50;;;36.30;;
11761;SDS011;5938;47.098;15.474;2023-09-12T07:18:43;37.43;;;32.63;;
11761;SDS011;5938;47.098;15.474;2023-09-12T07:22:47;32.10;;;28.70;;
11761;SDS011;5938;47.098;15.474;2023-09-12T07:26:51;26.23;;;23.83;;
11761;SDS011;5938;47.098;15.474;2023-09-12T07:30:56;24.03;;;21.73;;
11761;SDS011;5938;47.098;15.474;2023-09-12T07:35:00;22.60;;;20.40;;
11761;SDS011;5938;47.098;15.474;2023-09-12T07:39:04;20.67;;;18.60;;
11761;SDS011;5938;47.098;15.474;2023-09-12T07:43:08;22.07;;;20.07;;
11761;SDS011;5938;47.098;15.474;2023-09-12T07:47:14;21.27;;;18.57;;
11761;SDS011;5938;47.098;15.474;2023-09-12T07:51:19;18.50;;;16.70;;
11761;SDS011;5938;47.098;15.474;2023-09-12T07:55:24;19.23;;;17.20;;
11761;SDS011;5938;47.098;15.474;2023-09-12T07:59:31;17.40;;;15.80;;
11761;SDS011;5938;47.098;15.474;2023-09-12T08:03:37;18.13;;;16.53;;
11761;SDS011;5938;47.098;15.474;2023-09-12T08:07:43;15.67;;;14.07;;
11761;SDS011;5938;47.098;15.474;2023-09-12T08:11:46;17.60;;;15.80;;
11761;SDS011;5938;47.098;15.474;2023-09-12T08:15:51;16.83;;;15.40;;
11761;SDS011;5938;47.098;15.474;2023-09-12T08:19:58;14.13;;;13.03;;
11761;SDS011;5938;47.098;15.474;2023-09-12T08:24:02;15.27;;;13.97;;
11761;SDS011;5938;47.098;15.474;2023-09-12T08:28:06;16.77;;;15.37;;
11761;SDS011;5938;47.098;15.474;2023-09-12T08:32:09;15.83;;;14.47;;
11761;SDS011;5938;47.098;15.474;2023-09-12T08:36:14;14.73;;;13.53;;
11761;SDS011;5938;47.098;15.474;2023-09-12T08:40:20;15.00;;;13.50;;
11761;SDS011;5938;47.098;15.474;2023-09-12T08:44:25;13.43;;;12.43;;
11761;SDS011;5938;47.098;15.474;2023-09-12T08:48:28;14.37;;;13.27;;
11761;SDS011;5938;47.098;15.474;2023-09-12T08:52:35;14.67;;;13.43;;
11761;SDS011;5938;47.098;15.474;2023-09-12T08:56:49;14.07;;;12.77;;
11761;SDS011;5938;47.098;15.474;2023-09-12T09:00:52;15.10;;;13.50;;
11761;SDS011;5938;47.098;15.474;2023-09-12T09:04:56;13.87;;;12.43;;
11761;SDS011;5938;47.098;15.474;2023-09-12T09:09:05;13.83;;;12.60;;
11761;SDS011;5938;47.098;15.474;2023-09-12T09:13:12;14.70;;;13.47;;
11761;SDS011;5938;47.098;15.474;2023-09-12T09:17:16;14.00;;;12.90;;
11761;SDS011;5938;47.098;15.474;2023-09-12T09:21:37;13.70;;;12.60;;
11761;SDS011;5938;47.098;15.474;2023-09-12T09:25:45;13.00;;;11.82;;
11761;SDS011;5938;47.098;15.474;2023-09-12T09:29:55;12.37;;;11.33;;
11761;SDS011;5938;47.098;15.474;2023-09-12T09:33:58;14.10;;;13.00;;
11761;SDS011;5938;47.098;15.474;2023-09-12T09:38:03;14.43;;;12.53;;
11761;SDS011;5938;47.098;15.474;2023-09-12T09:42:12;12.70;;;11.50;;
11761;SDS011;5938;47.098;15.474;2023-09-12T09:46:16;12.10;;;11.07;;
11761;SDS011;5938;47.098;15.474;2023-09-12T09:50:20;14.63;;;13.43;;
11761;SDS011;5938;47.098;15.474;2023-09-12T09:54:24;12.30;;;11.40;;
11761;SDS011;5938;47.098;15.474;2023-09-12T09:58:31;12.67;;;11.77;;
11761;SDS011;5938;47.098;15.474;2023-09-12T10:12:43;12.00;;;11.10;;
11761;SDS011;5938;47.098;15.474;2023-09-12T10:21:46;12.77;;;11.87;;
11761;SDS011;5938;47.098;15.474;2023-09-12T10:25:52;12.87;;;11.97;;
11761;SDS011;5938;47.098;15.474;2023-09-12T10:29:57;13.70;;;12.50;;
11761;SDS011;5938;47.098;15.474;2023-09-12T10:34:02;12.03;;;10.93;;
11761;SDS011;5938;47.098;15.474;2023-09-12T10:38:09;13.10;;;12.20;;
11761;SDS011;5938;47.098;15.474;2023-09-12T10:42:15;13.37;;;12.30;;
11761;SDS011;5938;47.098;15.474;2023-09-12T10:46:19;14.03;;;12.97;;
11761;SDS011;5938;47.098;15.474;2023-09-12T10:50:24;13.03;;;11.90;;
11761;SDS011;5938;47.098;15.474;2023-09-12T10:54:36;12.97;;;12.00;;
11761;SDS011;5938;47.098;15.474;2023-09-12T11:03:36;13.87;;;12.57;;
11761;SDS011;5938;47.098;15.474;2023-09-12T11:07:44;12.53;;;11.43;;
11761;SDS011;5938;47.098;15.474;2023-09-12T11:11:54;12.00;;;11.10;;
11761;SDS011;5938;47.098;15.474;2023-09-12T11:16:12;12.03;;;11.13;;
11761;SDS011;5938;47.098;15.474;2023-09-12T11:20:19;11.83;;;11.03;;
11761;SDS011;5938;47.098;15.474;2023-09-12T11:24:25;14.33;;;12.50;;
11761;SDS011;5938;47.098;15.474;2023-09-12T11:28:30;12.37;;;11.37;;
11761;SDS011;5938;47.098;15.474;2023-09-12T11:32:34;13.93;;;12.93;;
11761;SDS011;5938;47.098;15.474;2023-09-12T11:36:39;12.93;;;12.03;;
11761;SDS011;5938;47.098;15.474;2023-09-12T11:40:45;12.73;;;11.83;;
11761;SDS011;5938;47.098;15.474;2023-09-12T11:44:58;11.50;;;10.80;;
11761;SDS011;5938;47.098;15.474;2023-09-12T11:49:02;12.03;;;11.23;;
11761;SDS011;5938;47.098;15.474;2023-09-12T11:53:07;11.83;;;11.03;;
11761;SDS011;5938;47.098;15.474;2023-09-12T11:57:17;11.80;;;11.00;;
11761;SDS011;5938;47.098;15.474;2023-09-12T12:01:28;11.30;;;10.53;;
11761;SDS011;5938;47.098;15.474;2023-09-12T12:05:32;14.13;;;12.77;;
11761;SDS011;5938;47.098;15.474;2023-09-12T12:09:38;11.60;;;10.70;;
11761;SDS011;5938;47.098;15.474;2023-09-12T12:13:42;12.90;;;11.93;;
11761;SDS011;5938;47.098;15.474;2023-09-12T12:17:49;12.93;;;12.00;;
11761;SDS011;5938;47.098;15.474;2023-09-12T12:21:57;13.20;;;12.20;;
11761;SDS011;5938;47.098;15.474;2023-09-12T12:26:02;13.27;;;12.23;;
11761;SDS011;5938;47.098;15.474;2023-09-12T12:30:07;12.13;;;11.17;;
11761;SDS011;5938;47.098;15.474;2023-09-12T12:34:13;11.37;;;10.47;;
11761;SDS011;5938;47.098;15.474;2023-09-12T12:38:37;12.10;;;11.07;;
11761;SDS011;5938;47.098;15.474;2023-09-12T12:42:52;11.37;;;10.60;;
11761;SDS011;5938;47.098;15.474;2023-09-12T12:46:56;11.60;;;10.80;;
11761;SDS011;5938;47.098;15.474;2023-09-12T12:51:05;11.63;;;10.83;;
11761;SDS011;5938;47.098;15.474;2023-09-12T12:55:20;12.47;;;11.50;;
11761;SDS011;5938;47.098;15.474;2023-09-12T12:59:24;11.63;;;10.83;;
11761;SDS011;5938;47.098;15.474;2023-09-12T13:03:27;10.20;;;9.40;;
11761;SDS011;5938;47.098;15.474;2023-09-12T13:07:34;11.37;;;10.57;;
11761;SDS011;5938;47.098;15.474;2023-09-12T13:11:39;11.43;;;10.50;;
11761;SDS011;5938;47.098;15.474;2023-09-12T13:15:44;11.87;;;11.17;;
11761;SDS011;5938;47.098;15.474;2023-09-12T13:19:47;11.80;;;11.00;;
11761;SDS011;5938;47.098;15.474;2023-09-12T13:23:52;11.97;;;11.03;;
11761;SDS011;5938;47.098;15.474;2023-09-12T13:27:55;12.57;;;11.57;;
11761;SDS011;5938;47.098;15.474;2023-09-12T13:32:00;13.47;;;12.10;;
11761;SDS011;5938;47.098;15.474;2023-09-12T13:36:04;13.63;;;12.53;;
11761;SDS011;5938;47.098;15.474;2023-09-12T13:40:10;12.83;;;12.03;;
11761;SDS011;5938;47.098;15.474;2023-09-12T13:44:14;13.80;;;12.77;;
11761;SDS011;5938;47.098;15.474;2023-09-12T13:48:19;12.87;;;11.87;;
11761;SDS011;5938;47.098;15.474;2023-09-12T13:52:23;13.47;;;12.47;;
11761;SDS011;5938;47.098;15.474;2023-09-12T13:56:30;12.77;;;11.97;;
11761;SDS011;5938;47.098;15.474;2023-09-12T14:00:34;12.90;;;12.00;;
11761;SDS011;5938;47.098;15.474;2023-09-12T14:04:38;10.67;;;9.97;;
11761;SDS011;5938;47.098;15.474;2023-09-12T14:08:44;14.33;;;12.83;;
11761;SDS011;5938;47.098;15.474;2023-09-12T14:16:58;12.50;;;11.53;;
11761;SDS011;5938;47.098;15.474;2023-09-12T14:21:03;12.40;;;11.50;;
11761;SDS011;5938;47.098;15.474;2023-09-12T14:25:08;11.60;;;10.70;;
11761;SDS011;5938;47.098;15.474;2023-09-12T14:29:18;11.27;;;10.37;;
11761;SDS011;5938;47.098;15.474;2023-09-12T14:33:25;11.97;;;10.77;;
11761;SDS011;5938;47.098;15.474;2023-09-12T14:37:30;11.30;;;10.50;;
11761;SDS011;5938;47.098;15.474;2023-09-12T14:41:35;11.40;;;10.67;;
11761;SDS011;5938;47.098;15.474;2023-09-12T14:45:41;10.87;;;10.00;;
11761;SDS011;5938;47.098;15.474;2023-09-12T14:49:45;12.30;;;11.43;;
11761;SDS011;5938;47.098;15.474;2023-09-12T14:53:52;12.90;;;11.97;;
11761;SDS011;5938;47.098;15.474;2023-09-12T14:57:56;12.90;;;11.90;;
11761;SDS011;5938;47.098;15.474;2023-09-12T15:02:03;14.60;;;13.10;;
11761;SDS011;5938;47.098;15.474;2023-09-12T15:06:07;15.20;;;14.03;;
11761;SDS011;5938;47.098;15.474;2023-09-12T15:10:10;13.80;;;12.70;;
11761;SDS011;5938;47.098;15.474;2023-09-12T15:14:14;13.03;;;11.87;;
11761;SDS011;5938;47.098;15.474;2023-09-12T15:18:20;14.13;;;13.00;;
11761;SDS011;5938;47.098;15.474;2023-09-12T15:22:26;14.73;;;13.63;;
11761;SDS011;5938;47.098;15.474;2023-09-12T15:26:30;15.03;;;13.87;;
11761;SDS011;5938;47.098;15.474;2023-09-12T15:30:35;14.90;;;13.70;;
11761;SDS011;5938;47.098;15.474;2023-09-12T15:34:42;15.90;;;14.50;;
11761;SDS011;5938;47.098;15.474;2023-09-12T15:38:46;16.30;;;14.90;;
11761;SDS011;5938;47.098;15.474;2023-09-12T15:42:51;14.60;;;13.53;;
11761;SDS011;5938;47.098;15.474;2023-09-12T15:46:55;15.13;;;13.90;;
11761;SDS011;5938;47.098;15.474;2023-09-12T15:51:14;15.70;;;14.20;;
11761;SDS011;5938;47.098;15.474;2023-09-12T15:55:19;15.97;;;14.67;;
11761;SDS011;5938;47.098;15.474;2023-09-12T15:59:24;15.80;;;14.67;;
11761;SDS011;5938;47.098;15.474;2023-09-12T16:03:31;16.60;;;15.03;;
11761;SDS011;5938;47.098;15.474;2023-09-12T16:07:37;15.47;;;14.07;;
11761;SDS011;5938;47.098;15.474;2023-09-12T16:11:44;16.47;;;15.17;;
11761;SDS011;5938;47.098;15.474;2023-09-12T16:15:48;16.00;;;14.70;;
11761;SDS011;5938;47.098;15.474;2023-09-12T16:19:55;16.33;;;15.17;;
11761;SDS011;5938;47.098;15.474;2023-09-12T16:28:16;17.20;;;15.60;;
11761;SDS011;5938;47.098;15.474;2023-09-12T16:32:21;18.20;;;16.50;;
11761;SDS011;5938;47.098;15.474;2023-09-12T16:36:25;18.63;;;16.93;;
11761;SDS011;5938;47.098;15.474;2023-09-12T16:40:31;18.03;;;16.53;;
11761;SDS011;5938;47.098;15.474;2023-09-12T16:44:36;19.30;;;17.47;;
11761;SDS011;5938;47.098;15.474;2023-09-12T16:48:42;19.33;;;17.63;;
11761;SDS011;5938;47.098;15.474;2023-09-12T16:52:48;20.80;;;18.70;;
11761;SDS011;5938;47.098;15.474;2023-09-12T16:56:54;19.07;;;17.33;;
11761;SDS011;5938;47.098;15.474;2023-09-12T17:01:00;19.47;;;17.87;;
11761;SDS011;5938;47.098;15.474;2023-09-12T17:05:10;18.93;;;17.00;;
11761;SDS011;5938;47.098;15.474;2023-09-12T17:09:16;19.00;;;17.50;;
11761;SDS011;5938;47.098;15.474;2023-09-12T17:13:23;18.97;;;17.40;;
11761;SDS011;5938;47.098;15.474;2023-09-12T17:17:28;20.30;;;18.70;;
11761;SDS011;5938;47.098;15.474;2023-09-12T17:21:35;21.97;;;20.20;;
11761;SDS011;5938;47.098;15.474;2023-09-12T17:25:38;22.40;;;20.10;;
11761;SDS011;5938;47.098;15.474;2023-09-12T17:29:44;21.30;;;19.43;;
11761;SDS011;5938;47.098;15.474;2023-09-12T17:33:48;22.23;;;20.00;;
11761;SDS011;5938;47.098;15.474;2023-09-12T17:37:54;24.53;;;21.07;;
11761;SDS011;5938;47.098;15.474;2023-09-12T17:41:58;24.50;;;22.20;;
11761;SDS011;5938;47.098;15.474;2023-09-12T17:46:05;22.70;;;20.60;;
11761;SDS011;5938;47.098;15.474;2023-09-12T17:50:12;22.73;;;20.77;;
11761;SDS011;5938;47.098;15.474;2023-09-12T17:54:19;23.83;;;21.63;;
11761;SDS011;5938;47.098;15.474;2023-09-12T17:58:32;23.50;;;21.40;;
11761;SDS011;5938;47.098;15.474;2023-09-12T18:02:56;23.67;;;21.67;;
11761;SDS011;5938;47.098;15.474;2023-09-12T18:07:11;23.23;;;21.37;;
11761;SDS011;5938;47.098;15.474;2023-09-12T18:11:27;24.93;;;22.40;;
11761;SDS011;5938;47.098;15.474;2023-09-12T18:15:41;25.03;;;22.90;;
11761;SDS011;5938;47.098;15.474;2023-09-12T18:20:03;23.80;;;21.80;;
11761;SDS011;5938;47.098;15.474;2023-09-12T18:24:17;24.87;;;22.67;;
11761;SDS011;5938;47.098;15.474;2023-09-12T18:28:35;25.63;;;23.43;;
11761;SDS011;5938;47.098;15.474;2023-09-12T18:32:45;25.70;;;23.37;;
11761;SDS011;5938;47.098;15.474;2023-09-12T18:36:54;26.53;;;24.23;;
11761;SDS011;5938;47.098;15.474;2023-09-12T18:41:15;27.27;;;24.63;;
11761;SDS011;5938;47.098;15.474;2023-09-12T18:45:30;25.07;;;22.97;;
11761;SDS011;5938;47.098;15.474;2023-09-12T18:49:36;25.13;;;22.93;;
11761;SDS011;5938;47.098;15.474;2023-09-12T18:53:46;26.37;;;23.97;;
11761;SDS011;5938;47.098;15.474;2023-09-12T18:57:56;26.30;;;24.00;;
11761;SDS011;5938;47.098;15.474;2023-09-12T19:02:04;27.00;;;24.80;;
11761;SDS011;5938;47.098;15.474;2023-09-12T19:06:13;28.00;;;25.40;;
11761;SDS011;5938;47.098;15.474;2023-09-12T19:10:31;28.60;;;25.90;;
11761;SDS011;5938;47.098;15.474;2023-09-12T19:14:41;28.10;;;25.40;;
11761;SDS011;5938;47.098;15.474;2023-09-12T19:18:52;28.43;;;25.83;;
11761;SDS011;5938;47.098;15.474;2023-09-12T19:23:06;27.20;;;24.70;;
11761;SDS011;5938;47.098;15.474;2023-09-12T19:27:28;27.53;;;25.13;;
11761;SDS011;5938;47.098;15.474;2023-09-12T19:31:40;28.70;;;26.17;;
11761;SDS011;5938;47.098;15.474;2023-09-12T19:36:09;28.60;;;25.80;;
11761;SDS011;5938;47.098;15.474;2023-09-12T19:40:28;28.97;;;26.20;;
11761;SDS011;5938;47.098;15.474;2023-09-12T19:44:45;28.23;;;25.57;;
11761;SDS011;5938;47.098;15.474;2023-09-12T19:48:59;28.30;;;25.77;;
11761;SDS011;5938;47.098;15.474;2023-09-12T19:53:08;30.33;;;27.33;;
11761;SDS011;5938;47.098;15.474;2023-09-12T19:57:18;28.17;;;25.57;;
11761;SDS011;5938;47.098;15.474;2023-09-12T20:01:36;27.90;;;25.30;;
11761;SDS011;5938;47.098;15.474;2023-09-12T20:05:42;28.20;;;25.60;;
11761;SDS011;5938;47.098;15.474;2023-09-12T20:09:49;30.67;;;27.57;;
11761;SDS011;5938;47.098;15.474;2023-09-12T20:13:58;29.10;;;26.60;;
11761;SDS011;5938;47.098;15.474;2023-09-12T20:18:08;29.00;;;26.47;;
11761;SDS011;5938;47.098;15.474;2023-09-12T20:22:28;27.80;;;25.43;;
11761;SDS011;5938;47.098;15.474;2023-09-12T20:26:33;29.47;;;26.73;;
11761;SDS011;5938;47.098;15.474;2023-09-12T20:30:41;31.43;;;28.10;;
11761;SDS011;5938;47.098;15.474;2023-09-12T20:34:46;29.53;;;26.43;;
11761;SDS011;5938;47.098;15.474;2023-09-12T20:38:50;30.07;;;27.17;;
11761;SDS011;5938;47.098;15.474;2023-09-12T20:43:27;30.70;;;27.93;;
11761;SDS011;5938;47.098;15.474;2023-09-12T20:47:32;30.07;;;27.37;;
11761;SDS011;5938;47.098;15.474;2023-09-12T20:51:39;28.07;;;25.57;;
11761;SDS011;5938;47.098;15.474;2023-09-12T20:55:48;30.57;;;27.67;;
11761;SDS011;5938;47.098;15.474;2023-09-12T20:59:52;28.33;;;25.73;;
11761;SDS011;5938;47.098;15.474;2023-09-12T21:03:58;29.20;;;26.50;;
11761;SDS011;5938;47.098;15.474;2023-09-12T21:08:04;29.73;;;27.03;;
11761;SDS011;5938;47.098;15.474;2023-09-12T21:12:08;30.17;;;27.47;;
11761;SDS011;5938;47.098;15.474;2023-09-12T21:16:12;29.73;;;27.03;;
11761;SDS011;5938;47.098;15.474;2023-09-12T21:20:15;29.00;;;26.40;;
11761;SDS011;5938;47.098;15.474;2023-09-12T21:24:20;30.10;;;27.40;;
11761;SDS011;5938;47.098;15.474;2023-09-12T21:28:25;30.73;;;28.00;;
11761;SDS011;5938;47.098;15.474;2023-09-12T21:32:28;30.20;;;27.50;;
11761;SDS011;5938;47.098;15.474;2023-09-12T21:36:33;29.63;;;27.03;;
11761;SDS011;5938;47.098;15.474;2023-09-12T21:40:38;30.60;;;27.90;;
11761;SDS011;5938;47.098;15.474;2023-09-12T21:44:41;29.93;;;27.10;;
11761;SDS011;5938;47.098;15.474;2023-09-12T21:48:45;31.20;;;28.10;;
11761;SDS011;5938;47.098;15.474;2023-09-12T21:52:48;29.83;;;27.13;;
11761;SDS011;5938;47.098;15.474;2023-09-12T21:56:53;32.10;;;29.00;;
11761;SDS011;5938;47.098;15.474;2023-09-12T22:00:57;30.60;;;27.60;;
11761;SDS011;5938;47.098;15.474;2023-09-12T22:05:02;31.17;;;28.10;;
11761;SDS011;5938;47.098;15.474;2023-09-12T22:09:07;30.90;;;28.10;;
11761;SDS011;5938;47.098;15.474;2023-09-12T22:13:13;30.50;;;27.60;;
11761;SDS011;5938;47.098;15.474;2023-09-12T22:17:16;29.83;;;27.13;;
11761;SDS011;5938;47.098;15.474;2023-09-12T22:21:20;30.50;;;27.67;;
11761;SDS011;5938;47.098;15.474;2023-09-12T22:25:24;31.13;;;28.33;;
11761;SDS011;5938;47.098;15.474;2023-09-12T22:29:29;32.10;;;29.00;;
11761;SDS011;5938;47.098;15.474;2023-09-12T22:33:33;31.00;;;28.10;;
11761;SDS011;5938;47.098;15.474;2023-09-12T22:37:37;31.47;;;27.90;;
11761;SDS011;5938;47.098;15.474;2023-09-12T22:41:40;29.10;;;26.40;;
11761;SDS011;5938;47.098;15.474;2023-09-12T22:45:46;28.87;;;26.37;;
11761;SDS011;5938;47.098;15.474;2023-09-12T22:49:50;32.10;;;29.10;;
11761;SDS011;5938;47.098;15.474;2023-09-12T22:53:54;33.37;;;30.17;;
11761;SDS011;5938;47.098;15.474;2023-09-12T22:57:57;31.93;;;29.13;;
11761;SDS011;5938;47.098;15.474;2023-09-12T23:02:02;31.77;;;28.87;;
11761;SDS011;5938;47.098;15.474;2023-09-12T23:06:06;30.30;;;27.57;;
11761;SDS011;5938;47.098;15.474;2023-09-12T23:10:09;32.03;;;29.17;;
11761;SDS011;5938;47.098;15.474;2023-09-12T23:14:13;31.53;;;28.73;;
11761;SDS011;5938;47.098;15.474;2023-09-12T23:18:18;31.47;;;28.57;;
11761;SDS011;5938;47.098;15.474;2023-09-12T23:22:22;31.57;;;28.00;;
11761;SDS011;5938;47.098;15.474;2023-09-12T23:26:29;32.83;;;29.80;;
11761;SDS011;5938;47.098;15.474;2023-09-12T23:30:38;31.20;;;28.30;;
11761;SDS011;5938;47.098;15.474;2023-09-12T23:34:43;32.73;;;29.33;;
11761;SDS011;5938;47.098;15.474;2023-09-12T23:43:00;32.63;;;29.70;;
11761;SDS011;5938;47.098;15.474;2023-09-12T23:47:03;31.97;;;29.20;;
11761;SDS011;5938;47.098;15.474;2023-09-12T23:51:08;31.47;;;28.60;;
11761;SDS011;5938;47.098;15.474;2023-09-12T23:55:12;33.07;;;30.10;;
11761;SDS011;5938;47.098;15.474;2023-09-12T23:59:15;32.93;;;29.63;;
